Liquipedia will soon drop support for Internet Explorer.

CDew: Results

< CDew

Detailed Results[edit]

Date Placement Tier Tournament Team Results Prize
2019
2019-09-22 A55 - 6th A2Tier 2 2019 Summer Finals $4,000
2019-08-05 A33rd A7Qualifier AWC Summer 2019 - NA Cup #6 3 : 2 $1,600
2019-07-29 A22nd A7Qualifier AWC Summer 2019 - NA Cup #5  : 4 $2,800
2019-07-22 A33rd A7Qualifier AWC Summer 2019 - NA Cup #4  : 3 $1,600
2019-07-15 A77 - 8th A7Qualifier AWC Summer 2019 - NA Cup #3  : 3 $0
2019-07-03 A11st A4Misc Classic WoW Dueling Tournament
No team template exists for name "method (organization)".
$3,000
2019-06-24 A44th A7Qualifier AWC Summer 2019 - NA Cup #2 1 : 3 $600
2019-06-17 A22nd A7Qualifier AWC Summer 2019 - NA Cup #1 1 : 4 $2,800
2019-06-02 A33rd A4Misc The Classic Cup
No team template exists for name "method (organization)".
$300
2019-05-12 A77 - 8th A2Tier 2 2019 Spring Finals 0 : 3 $2,000
2019-03-24 A55 - 6th A7Qualifier AWC Spring 2019 - NA Cup #6 1 : 3 $0
2019-03-10 A44th A7Qualifier AWC Spring 2019 - NA Cup #5 1 : 3 $600
2019-03-03 A22nd A7Qualifier AWC Spring 2019 - NA Cup #4 2 : 4 $2,800
2019-02-24 A22nd A7Qualifier AWC Spring 2019 - NA Cup #3 3 : 4 $2,800
2019-02-17 A22nd A7Qualifier AWC Spring 2019 - NA Cup #2 0 : 4 $2,800
2018
2018-11-03 A11st A1Premier Arena World Championship 2018 4 : 0 $120,000
2018-10-07 A11st A7Qualifier North America - Fall Cup #3 4 : 3 $5,000
2018-09-30 A22nd A7Qualifier North America - Fall Cup #2 0 : 4 $2,800
2018-09-16 A11st A7Qualifier North America - Fall Cup #1 4 : 1 $5,000
2018-06-17 A33rd A7Qualifier Summer NA Cup #3 0 : 3 $1,600
2018-06-03 A77 - 8th A7Qualifier Summer NA Cup #2 2 : 3 $0
2018-05-20 A22nd A7Qualifier Summer NA Cup #1 3 : 4 $2,800
2018-04-01 A77 - 8th A2Tier 2 2018 Spring Finals 1 : 3 $2,000
2018-03-11 A44th A7Qualifier Spring NA Cup #3 1 : 3 $600
2018-02-25 A11st A7Qualifier Spring NA Cup #2 4 : 2 $5,000
2018-02-11 A22nd A7Qualifier Spring NA Cup #1 3 : 4 $2,800
2017
2017-09-10 A55 - 6th A2Tier 2 North American Championship Finals 2017 1 : 3 $5,000
2017-07-16 A44th A7Qualifier Method NA Major 1 : 3 $800
2017-06-10 A44th A7Qualifier North America - Arena Cup #3 2 : 3 $500
2017-05-28 A11st A5Monthly GCDTV NA May Clash 3 : 0 $1,140.6
2017-05-14 A44th A7Qualifier North America - Arena Cup #2 1 : 3 $500
2017-04-23 A11st A5Monthly GCDTV NA April Clash 3 : 1 $1,140
2017-04-08 A44th A7Qualifier North America - Arena Cup #1 0 : 3 $500
2016
2016-11-05 A22nd A1Premier Arena World Championship 2016 3 : 4 $50,000
2016-10-09 A11st A2Tier 2 American Regional Championship 2016 4 : 1 $50,000
2014
2014-11-08 A33 - 4th A1Premier Arena World Championship 2014 2 : 3 $20,000
2014-10-06 A11st A2Tier 2 American Regional Championship 2014 $50,000
2012
2012-11-17 A44th A1Premier World of Warcraft Arena Global Finals 2012 $12,000
2012-08-26 A11st A2Tier 2 American Regional Championship 2012 $12,000
2011
2011-10-22 A55th A1Premier BlizzCon 2011 Arena Global Invitational 6/0/3 Grp. S. $0
2011-08-13 A11st A2Tier 2 American Regional Championship 2011 $15,000
2010
2010-06-06 A22nd A2Tier 2 MLG Pro Circuit 2010 - Raleigh  : 3 $4,500
2010-03-04 A11st A1Premier Intel Extreme Masters IV 4 : 1 $25,000
2009
2009-06-28 A77 - 8th A2Tier 2 American Regional Championship 2009 0 : 1 $0